• Join FlightAware (Why Join?)
  • Login
  • US Flag 
02:27PM EDT


 

Airport Tracker/Info


-or-


 

Live Flight TrackerFlight Track Log ✈ EJA947 ✈ 22-Apr-2013 ✈ KAPA - KFSM

Flight Track Log - Related Links

Times and Time Zones

All times are in EDT time to prevent confusion due to time zone crossing. See the EJA947 flight status page for this flight to view local times or setup timezone preferences in your user account.

Time Position Orientation Groundspeed Altitude Reporting Facility
EDT Latitude Longitude Course Direction KTS MPH feet Rate Location/Type
02:28PM 39.6000 -104.8500 360° North 196 226 7,900  Level Denver TRACON
02:29PM 39.6667 -104.8500 360° North 251 289 10,900 2,760 Climbing Denver TRACON
02:30PM 39.7064 -104.8392 12° North 281 323 12,700 2,460 Climbing Denver Center
02:31PM 39.7247 -104.6961 80° East 364 419 15,500 2,340 Climbing Denver Center
02:32PM 39.7028 -104.5456 101° East 401 461 17,600 1,920 Climbing Denver Center
02:33PM 39.6811 -104.3942 100° East 427 491 19,500 1,980 Climbing Denver Center
02:34PM 39.6572 -104.2361 101° East 447 514 21,700 2,100 Climbing Denver Center
02:35PM 39.6306 -104.0567 101° East 471 542 23,900 1,800 Climbing Denver Center
02:36PM 39.6056 -103.8900 101° East 491 565 25,500 1,500 Climbing Denver Center
02:37PM 39.5675 -103.7031 105° East 519 597 27,000 1,620 Climbing Denver Center
02:38PM 39.5181 -103.5133 109° East 546 628 28,900 1,800 Climbing Denver Center
02:39PM 39.4658 -103.3158 109° East 571 657 30,700 2,220 Climbing Denver Center
02:40PM 39.4125 -103.1158 109° East 582 670 33,500 2,040 Climbing Denver Center
02:41PM 39.3508 -102.8853 109° East 578 665 35,000 1,320 Climbing Denver Center
02:42PM 39.3000 -102.7011 110° East 597 687 36,300 1,500 Climbing Denver Center
02:43PM 39.2389 -102.4761 109° East 595 685 38,100 1,740 Climbing Denver Center
02:44PM 39.1869 -102.2878 110° East 585 673 39,900 1,380 Climbing Denver Center
02:45PM 39.1292 -102.0772 109° East 560 644 41,000 480 Climbing Denver Center
02:47PM 39.0647 -101.9014 115° Southeast 564 649 41,000  Level Denver Center
02:48PM 38.9911 -101.7317 119° Southeast 568 654 41,000  Level Denver Center
02:49PM 38.9178 -101.5611 119° Southeast 570 656 41,000  Level Denver Center
02:50PM 38.8314 -101.3611 119° Southeast 574 661 41,000  Level Denver Center
02:51PM 38.7447 -101.1617 119° Southeast 572 658 41,000  Level Denver Center
02:52PM 38.6700 -100.9908 119° Southeast 572 658 41,000  Level Denver Center
02:53PM 38.5828 -100.7925 119° Southeast 572 658 41,000  Level Denver Center
02:54PM 38.5069 -100.6194 119° Southeast 579 666 41,000  Level Denver Center
02:55PM 38.4306 -100.4492 120° Southeast 577 664 41,000  Level Denver Center
02:56PM 38.3669 -100.3069 120° Southeast 576 663 41,000  Level Denver Center
02:56PM 38.3017 -100.1603 120° Southeast 581 669 41,000  Level Kansas City Center
02:57PM 38.2233 -99.9897 120° Southeast 581 669 41,000  Level Kansas City Center
02:58PM 38.1333 -99.7914 120° Southeast 581 669 41,000  Level Kansas City Center
02:59PM 38.0553 -99.6214 120° Southeast 580 667 41,000  Level Kansas City Center
03:00PM 37.9697 -99.4350 120° Southeast 578 665 41,000  Level Kansas City Center
03:01PM 37.8900 -99.2589 120° Southeast 579 666 41,000  Level Kansas City Center
03:02PM 37.8094 -99.0853 120° Southeast 576 663 41,000  Level Kansas City Center
03:04PM 37.7283 -98.9114 120° Southeast 577 664 41,000  Level Kansas City Center
03:05PM 37.6456 -98.7344 121° Southeast 585 673 41,000  Level Kansas City Center
03:06PM 37.5467 -98.5264 121° Southeast 583 671 41,000  Level Kansas City Center
03:07PM 37.4644 -98.3519 121° Southeast 583 671 41,000  Level Kansas City Center
03:08PM 37.3808 -98.1792 121° Southeast 583 671 41,000  Level Kansas City Center
03:09PM 37.2969 -98.0044 121° Southeast 587 676 41,000  Level Kansas City Center
03:10PM 37.2136 -97.8314 121° Southeast 586 674 41,000  Level Kansas City Center
03:11PM 37.1125 -97.6239 121° Southeast 585 673 41,000  Level Kansas City Center
03:12PM 37.0300 -97.4475 120° Southeast 587 676 41,000 -60 Level Kansas City Center
03:13PM 36.9442 -97.2736 122° Southeast 590 679 40,900 -540 Descending Kansas City Center
03:14PM 36.8583 -97.0986 121° Southeast 590 679 39,900 -1,200 Descending Kansas City Center
03:15PM 36.7717 -96.9250 122° Southeast 586 674 38,500 -1,440 Descending Kansas City Center
03:16PM 36.6836 -96.7489 122° Southeast 595 685 37,000 -1,260 Descending Kansas City Center
03:17PM 36.5953 -96.5733 122° Southeast 597 687 36,000 -600 Descending Kansas City Center
03:18PM 36.4872 -96.3581 122° Southeast 610 702 35,900 -480 Descending Kansas City Center
03:19PM 36.3956 -96.1781 122° Southeast 615 708 35,000 -960 Descending Kansas City Center
03:20PM 36.3050 -96.0011 122° Southeast 613 705 34,000 -1,020 Descending Kansas City Center
03:21PM 36.2156 -95.8261 122° Southeast 609 701 33,000 -540 Descending Kansas City Center
03:22PM 36.1228 -95.6619 125° Southeast 608 700 33,000 -1,320 Level Kansas City Center
03:23PM 36.0022 -95.4633 127° Southeast 598 688 30,300 -2,760 Descending Kansas City Center
03:24PM 35.9072 -95.3047 126° Southeast 588 677 27,300 -3,300 Descending Kansas City Center
03:25PM 35.8167 -95.1536 126° Southeast 567 652 23,600 -1,320 Descending Kansas City Center
03:26PM 35.7492 -95.0481 128° Southeast 549 632 25,000 780 Climbing Memphis Center
03:27PM 35.6747 -94.9186 125° Southeast 504 580 25,000  Level Memphis Center
03:28PM 35.6019 -94.8025 128° Southeast 466 536 25,000  Level Memphis Center
03:29PM 35.5406 -94.7097 129° Southeast 403 464 25,000  Level Memphis Center
03:30PM 35.4758 -94.6503 143° Southeast 333 383 25,000  Level Memphis Center
03:31PM 35.4108 -94.6011 148° Southeast 302 348 25,000  Level Memphis Center
03:32PM 35.3539 -94.5575 148° Southeast 269 310 25,000  Level Memphis Center
03:33PM 35.3139 -94.5097 136° Southeast 249 287 25,000  Level Memphis Center
03:34PM 35.3283 -94.4494 74° East 165 190 25,000  Level Memphis Center
03:35PM 35.3072 -94.3922 114° Southeast 165 190 25,000  Level Memphis Center
03:36PM 35.2942 -94.3408 107° East 165 190 25,000  Level Memphis Center
03:37PM 35.2792 -94.2892 110° East 165 190 25,000  Level Memphis Center
03:38PM 35.2661 -94.2378 107° East 165 190 25,000  Level Memphis Center
03:39PM 35.2661 -94.2378 59° Northeast 165 190 25,000  Level Memphis Center
03:42PM 35.3333 -94.3667 307° West  Level FlightAware Approximate
03:49PM 35.3366 -94.3674 307° West  Level Estimated
03:50PM 35.3333 -94.3667 307° West  Level FlightAware Approximate
03:51PM 35.3366 -94.3674 307° West  Level Estimated
03:52PM 35.3333 -94.3667 307° West  Level FlightAware Approximate
03:53PM 35.3366 -94.3674 307° West  Level Estimated
03:54PM 35.3333 -94.3667 307° West  Level FlightAware Approximate
03:55PM 35.3366 -94.3674 307° West  Level Estimated